Strona główna
METAR-TAF:

METAR-TAF

Lotnisko :

New River Valley Airport

Dublin, Wirginia, Stany Zjednoczone

Szerokość geograficzna: 37-08N, Długość geograficzna: 080-41W, wysokość: 642 m

Aktualna obserwacja pogody

Raport powstał 25 minut temu, godzina 09:15 UTC
Cisza
Temperatura 21°C
Wilgotność 100%
Ciśnienie 1020 hPa
Widzialność: 16.1 km
bezchmurnie

METAR: KPSK 200915Z AUTO 00000KT 10SM CLR 21/21 A3012 RMK AO2 T02110208

czas: 05:40 (09:40 UTC)


TAF: brakujący

Obserwacja i prognoza pogody dla ponad 4000 lotnisk (raport METAR i TAF).

Dostępne stacje oznaczono żółtymi i czerwonymi punktami na mapie.

Najedź kursorem aby zobaczyć nazwę stacji.

Kliknij aby zobaczyć obserwacje i prognozy pogody.

Aby zmienić mapę: kliknij na zielony przycisk z czarnym krzyżykiem, aby powiększyć; na zielony przycisk z myślnikiem, aby pomniejszyć; na zielone strzałki, aby przejść do map sąsiednich.


METAR-TAF: